Time;durP1;ratioP1;P1;durP2;ratioP2;P2;SDS_P1;SDS_P2;PMS_P1;PMS_P2;Temp;Humidity;BMP_temperature;BMP_pressure;BME280_temperature;BME280_humidity;BME280_pressure;Samples;Min_cycle;Max_cycle;Signal;HPM_P1;HPM_P2
2021/05/06 00:00:07;;;;;;;25.60;6.75;;;13.40;63.10;;;;;;5035355;28;20083;-61
2021/05/06 00:10:42;;;;;;;15.70;4.97;;;13.30;63.10;;;;;;5022312;28;20422;-62
2021/05/06 00:32:09;;;;;;;13.52;4.57;;;13.20;63.20;;;;;;5039784;28;20435;-61
2021/05/06 00:34:35;;;;;;;18.10;4.90;;;13.20;63.20;;;;;;5026832;28;20079;-62
2021/05/06 00:37:01;;;;;;;20.58;4.95;;;13.20;63.20;;;;;;5024861;28;20025;-60
2021/05/06 00:39:31;;;;;;;22.02;5.30;;;13.10;63.20;;;;;;5026981;28;20029;-60
2021/05/06 01:03:21;;;;;;;13.48;4.50;;;13.00;63.10;;;;;;5031999;28;20037;-61
2021/05/06 01:05:53;;;;;;;11.32;4.20;;;13.00;63.00;;;;;;5030018;28;20022;-61
2021/05/06 01:08:23;;;;;;;13.02;3.95;;;13.00;63.10;;;;;;5032698;28;20025;-60
2021/05/06 01:11:05;;;;;;;15.38;4.18;;;13.00;63.10;;;;;;5035604;28;20033;-62
2021/05/06 01:13:32;;;;;;;12.65;4.13;;;13.00;63.10;;;;;;5035493;28;20075;-60
2021/05/06 01:15:58;;;;;;;15.65;4.78;;;13.00;63.10;;;;;;5029099;28;20116;-61
2021/05/06 01:18:24;;;;;;;9.10;4.22;;;13.00;63.10;;;;;;5033414;28;20097;-63
2021/05/06 01:20:53;;;;;;;16.83;4.32;;;13.00;63.10;;;;;;5018841;28;20482;-61
2021/05/06 01:23:19;;;;;;;17.17;4.28;;;13.00;63.00;;;;;;5030217;28;20488;-62
2021/05/06 01:25:52;;;;;;;13.77;3.78;;;12.90;63.00;;;;;;5015171;28;20021;-61
2021/05/06 01:28:22;;;;;;;16.70;4.63;;;13.00;63.10;;;;;;5038126;28;20089;-61
2021/05/06 01:31:00;;;;;;;20.33;4.43;;;12.80;63.00;;;;;;5024581;28;20432;-60
2021/05/06 01:33:33;;;;;;;14.35;5.00;;;12.90;63.00;;;;;;5031054;28;20510;-61
2021/05/06 01:36:21;;;;;;;13.02;4.20;;;12.90;63.00;;;;;;5033625;28;20033;-61
2021/05/06 01:44:11;;;;;;;14.35;3.70;;;12.90;63.00;;;;;;5027326;28;20036;-60
2021/05/06 01:58:31;;;;;;;13.85;4.95;;;12.80;62.80;;;;;;5002131;28;20037;-62
2021/05/06 02:01:04;;;;;;;9.55;3.60;;;12.90;62.90;;;;;;5040173;28;20037;-60
2021/05/06 02:03:30;;;;;;;16.75;3.58;;;12.80;62.90;;;;;;5023418;28;20022;-60
2021/05/06 02:05:55;;;;;;;11.40;3.42;;;12.80;62.90;;;;;;5028541;28;20029;-62
2021/05/06 02:08:21;;;;;;;19.02;4.18;;;12.80;62.90;;;;;;5019407;28;20084;-60
2021/05/06 02:10:47;;;;;;;12.82;4.18;;;12.80;62.90;;;;;;5009135;28;20025;-63
2021/05/06 02:13:15;;;;;;;9.65;3.60;;;12.80;62.90;;;;;;5020506;28;20039;-61
2021/05/06 02:15:44;;;;;;;15.15;3.42;;;12.80;62.90;;;;;;5041099;28;20590;-60
2021/05/06 02:18:10;;;;;;;15.90;3.33;;;12.80;62.80;;;;;;5036126;28;20536;-62
2021/05/06 02:20:35;;;;;;;12.50;3.08;;;12.80;62.90;;;;;;5008243;28;20033;-63
2021/05/06 02:23:04;;;;;;;7.53;3.05;;;12.80;62.90;;;;;;5027635;28;20025;-61
2021/05/06 02:25:29;;;;;;;11.10;3.40;;;12.70;62.70;;;;;;5006839;28;20025;-62
2021/05/06 02:27:55;;;;;;;8.48;3.20;;;12.80;62.80;;;;;;5016596;28;20050;-60
2021/05/06 02:30:20;;;;;;;13.68;4.53;;;12.70;62.80;;;;;;5013262;28;20522;-62
2021/05/06 02:32:46;;;;;;;12.18;4.18;;;12.70;62.80;;;;;;5017880;28;20059;-60
2021/05/06 02:35:12;;;;;;;17.23;4.38;;;12.70;62.80;;;;;;5043375;28;20037;-60
2021/05/06 02:37:37;;;;;;;9.32;4.00;;;12.70;62.70;;;;;;5027753;28;20136;-61
2021/05/06 02:40:04;;;;;;;11.13;4.15;;;12.70;62.70;;;;;;5009002;28;20440;-63
2021/05/06 02:42:30;;;;;;;12.30;3.85;;;12.70;62.70;;;;;;5029372;28;20068;-61
2021/05/06 02:44:56;;;;;;;12.15;3.90;;;12.70;62.60;;;;;;5012756;28;20132;-60
2021/05/06 02:47:21;;;;;;;12.18;3.78;;;12.70;62.70;;;;;;5028973;28;20064;-62
2021/05/06 02:49:48;;;;;;;8.30;3.95;;;12.70;62.80;;;;;;5034739;28;20033;-61
2021/05/06 02:52:22;;;;;;;7.72;3.33;;;12.70;62.80;;;;;;5020567;28;20040;-60
2021/05/06 02:54:54;;;;;;;8.32;3.28;;;12.70;62.70;;;;;;5008488;28;20132;-62
2021/05/06 02:57:57;;;;;;;14.65;3.47;;;12.70;62.80;;;;;;5032628;28;20195;-62
2021/05/06 03:02:56;;;;;;;9.65;3.42;;;12.70;62.60;;;;;;5021125;28;20036;-62
2021/05/06 03:05:23;;;;;;;11.82;3.28;;;12.60;62.60;;;;;;5021028;28;20033;-62
2021/05/06 03:08:36;;;;;;;15.07;3.78;;;12.60;62.60;;;;;;5016833;28;20388;-62
2021/05/06 03:23:35;;;;;;;8.80;3.22;;;12.60;62.60;;;;;;5040631;28;20025;-62
2021/05/06 03:26:00;;;;;;;12.25;3.22;;;12.60;62.60;;;;;;5036220;28;20043;-61
2021/05/06 03:28:50;;;;;;;10.50;3.42;;;12.50;62.70;;;;;;5030672;28;20388;-62
2021/05/06 03:42:08;;;;;;;8.15;2.67;;;12.50;62.70;;;;;;5030444;28;20092;-61
2021/05/06 03:44:44;;;;;;;5.35;2.47;;;12.50;62.60;;;;;;5029505;28;20025;-61
2021/05/06 04:03:44;;;;;;;11.35;3.33;;;12.50;62.70;;;;;;5030074;28;20159;-61
2021/05/06 04:14:59;;;;;;;105.60;13.80;;;12.40;62.70;;;;;;5028489;28;20099;-59
2021/05/06 04:18:16;;;;;;;82.15;10.57;;;12.40;62.60;;;;;;5008159;28;20053;-60
2021/05/06 04:31:06;;;;;;;272.75;25.67;;;12.40;62.70;;;;;;5032515;28;20028;-63
2021/05/06 04:36:28;;;;;;;266.83;23.85;;;12.40;62.60;;;;;;5029678;28;20023;-60
2021/05/06 04:38:54;;;;;;;309.48;28.48;;;12.40;62.70;;;;;;5031301;28;20022;-61
2021/05/06 04:44:24;;;;;;;356.38;31.70;;;12.40;62.60;;;;;;5032437;28;20485;-61
2021/05/06 04:54:57;;;;;;;538.60;45.83;;;12.40;63.20;;;;;;5029153;28;20124;-62
2021/05/06 05:05:28;;;;;;;341.65;30.83;;;12.40;63.10;;;;;;5034413;28;20044;-61
2021/05/06 05:08:01;;;;;;;340.48;32.38;;;12.40;63.00;;;;;;5032733;28;20029;-61
2021/05/06 05:10:45;;;;;;;294.63;28.58;;;12.40;63.00;;;;;;5033607;28;20022;-60
2021/05/06 05:23:42;;;;;;;269.77;23.45;;;12.40;63.20;;;;;;5034161;28;20029;-60
2021/05/06 05:26:10;;;;;;;197.05;20.55;;;12.40;63.20;;;;;;5011232;28;20067;-60
2021/05/06 05:28:37;;;;;;;231.00;21.20;;;12.40;63.20;;;;;;5038740;28;20480;-61
2021/05/06 05:31:03;;;;;;;200.43;21.17;;;12.40;63.40;;;;;;5027962;28;20061;-63
2021/05/06 05:33:31;;;;;;;215.40;22.02;;;12.40;63.70;;;;;;5020620;28;20538;-61
2021/05/06 05:36:06;;;;;;;177.00;19.30;;;12.40;63.70;;;;;;5039670;28;20120;-62
2021/05/06 05:38:43;;;;;;;194.80;18.95;;;12.50;64.20;;;;;;5024397;28;20044;-60
2021/05/06 05:43:57;;;;;;;179.60;18.48;;;12.40;64.30;;;;;;5032510;28;20522;-62
2021/05/06 05:54:32;;;;;;;154.80;15.07;;;12.50;64.70;;;;;;5026202;28;20025;-61
2021/05/06 05:54:38;;;;;;;124.70;12.63;;;12.40;64.80;;;;;;5041314;28;20105;-62
2021/05/06 05:57:10;;;;;;;108.28;11.63;;;12.50;65.00;;;;;;5041036;28;20036;-62
2021/05/06 05:59:37;;;;;;;100.78;11.32;;;12.50;65.20;;;;;;5039336;28;20075;-60
2021/05/06 06:02:03;;;;;;;83.68;10.57;;;12.50;65.20;;;;;;5020491;28;20366;-62
2021/05/06 06:04:28;;;;;;;97.13;10.77;;;12.50;65.00;;;;;;5024166;28;20036;-62
2021/05/06 06:06:54;;;;;;;127.53;12.80;;;12.50;64.80;;;;;;5029914;28;20476;-62
2021/05/06 06:09:19;;;;;;;83.90;12.15;;;12.50;65.00;;;;;;5031777;28;20029;-61
2021/05/06 06:11:45;;;;;;;89.97;10.40;;;12.50;64.80;;;;;;5026216;28;20120;-63
2021/05/06 06:14:10;;;;;;;83.18;11.52;;;12.50;64.80;;;;;;4997412;28;20051;-63
2021/05/06 06:16:39;;;;;;;100.55;10.55;;;12.60;65.10;;;;;;5026121;28;20025;-63
2021/05/06 06:19:05;;;;;;;71.78;8.88;;;12.60;65.40;;;;;;5036371;28;20120;-60
2021/05/06 06:21:38;;;;;;;76.30;9.93;;;12.60;65.70;;;;;;5033377;28;20100;-61
2021/05/06 06:24:07;;;;;;;83.50;10.65;;;12.60;65.40;;;;;;5020261;28;20024;-61
2021/05/06 06:26:33;;;;;;;67.53;9.00;;;12.60;65.50;;;;;;5005613;28;20040;-63
2021/05/06 06:29:05;;;;;;;83.80;8.43;;;12.60;65.70;;;;;;5017916;28;20123;-62
2021/05/06 06:31:39;;;;;;;80.63;9.65;;;12.60;66.20;;;;;;5034921;28;20045;-63
2021/05/06 06:34:05;;;;;;;89.15;7.57;;;12.70;67.20;;;;;;5035873;28;20033;-61
2021/05/06 06:36:31;;;;;;;85.70;9.77;;;12.70;66.60;;;;;;5022845;28;20267;-62
2021/05/06 06:38:57;;;;;;;49.45;7.65;;;12.70;66.50;;;;;;5019043;28;20408;-62
2021/05/06 06:41:22;;;;;;;72.28;8.98;;;12.70;66.70;;;;;;5020907;28;20499;-61
2021/05/06 06:43:50;;;;;;;60.15;8.15;;;12.70;66.70;;;;;;5021938;28;20025;-63
2021/05/06 06:46:16;;;;;;;71.32;7.75;;;12.70;67.00;;;;;;5022957;28;20516;-62
2021/05/06 06:48:43;;;;;;;69.57;8.95;;;12.80;66.90;;;;;;5013468;28;20080;-61
2021/05/06 06:51:08;;;;;;;99.63;12.23;;;12.80;66.80;;;;;;5021774;28;20036;-63
2021/05/06 06:53:34;;;;;;;132.77;12.13;;;12.80;66.70;;;;;;5014153;28;20041;-62
2021/05/06 06:55:59;;;;;;;117.53;12.68;;;12.60;66.60;;;;;;5030449;28;20025;-61
2021/05/06 06:58:25;;;;;;;119.70;12.60;;;12.80;66.90;;;;;;5029456;28;20056;-61
2021/05/06 07:00:50;;;;;;;132.65;12.88;;;12.90;66.90;;;;;;5019086;28;20044;-63
2021/05/06 07:03:16;;;;;;;127.68;16.17;;;12.90;66.90;;;;;;5002091;28;20036;-62
2021/05/06 07:05:42;;;;;;;109.13;11.32;;;13.00;66.70;;;;;;5013542;28;20045;-61
2021/05/06 07:08:29;;;;;;;81.05;9.55;;;13.00;66.30;;;;;;5040308;28;20029;-64
2021/05/06 07:10:56;;;;;;;59.65;6.93;;;13.00;65.90;;;;;;5022860;28;20029;-62
2021/05/06 07:13:22;;;;;;;63.33;7.68;;;13.00;65.60;;;;;;5036048;28;20503;-61
2021/05/06 07:15:49;;;;;;;64.95;8.20;;;13.00;65.40;;;;;;5020434;28;20025;-60
2021/05/06 07:18:15;;;;;;;61.67;7.47;;;13.10;65.30;;;;;;5020282;28;20110;-62
2021/05/06 07:20:43;;;;;;;51.15;6.43;;;13.10;65.10;;;;;;5035384;28;20071;-61
2021/05/06 07:23:09;;;;;;;51.55;6.25;;;13.10;65.00;;;;;;5018192;28;20032;-62
2021/05/06 07:25:35;;;;;;;42.90;6.00;;;13.10;64.70;;;;;;5032651;28;20465;-61
2021/05/06 07:28:15;;;;;;;48.08;6.18;;;13.10;64.80;;;;;;5032684;28;20125;-62
2021/05/06 07:30:41;;;;;;;57.40;6.95;;;13.10;64.70;;;;;;4990679;28;20056;-61
2021/05/06 07:33:06;;;;;;;38.10;5.97;;;13.20;64.70;;;;;;5015670;28;20106;-62
2021/05/06 07:35:32;;;;;;;49.67;7.70;;;13.20;64.50;;;;;;5017062;28;20025;-61
2021/05/06 07:37:58;;;;;;;91.22;11.18;;;13.20;64.20;;;;;;5028735;28;20030;-61
2021/05/06 07:40:24;;;;;;;77.32;11.00;;;13.20;63.90;;;;;;5028518;28;20044;-60
2021/05/06 07:42:50;;;;;;;62.35;9.48;;;13.30;63.90;;;;;;5007571;28;20061;-63
2021/05/06 07:45:15;;;;;;;77.93;9.30;;;13.30;63.70;;;;;;5028503;28;20536;-60
2021/05/06 07:47:41;;;;;;;60.50;7.82;;;13.30;63.40;;;;;;5013763;28;20049;-62
2021/05/06 07:50:07;;;;;;;55.97;8.05;;;13.30;63.30;;;;;;5028900;28;20024;-62
2021/05/06 07:52:33;;;;;;;38.85;5.78;;;13.40;63.30;;;;;;5035222;28;20481;-62
2021/05/06 07:54:59;;;;;;;74.78;8.43;;;13.40;63.00;;;;;;5033297;28;20524;-62
2021/05/06 07:57:25;;;;;;;99.30;11.45;;;13.40;62.40;;;;;;5020093;28;20037;-63
2021/05/06 07:59:50;;;;;;;64.63;9.18;;;13.40;62.30;;;;;;5034379;28;20045;-62
2021/05/06 08:02:16;;;;;;;33.40;6.57;;;13.50;62.20;;;;;;5032154;28;20032;-63
2021/05/06 08:04:42;;;;;;;62.28;6.85;;;13.50;62.00;;;;;;5019416;28;20032;-62
2021/05/06 08:07:07;;;;;;;69.95;7.90;;;13.50;61.90;;;;;;5037349;28;21337;-61
2021/05/06 08:09:33;;;;;;;70.47;8.82;;;13.50;61.80;;;;;;5037344;28;20033;-63
2021/05/06 08:12:01;;;;;;;61.85;7.10;;;13.50;61.70;;;;;;5022594;28;20045;-62
2021/05/06 08:14:27;;;;;;;82.75;8.18;;;13.50;61.70;;;;;;5043562;28;20367;-61
2021/05/06 08:16:52;;;;;;;63.78;7.47;;;13.50;61.60;;;;;;5041921;28;20039;-61
2021/05/06 08:19:18;;;;;;;59.42;8.43;;;13.60;61.50;;;;;;5041055;28;20044;-61
2021/05/06 08:21:44;;;;;;;53.03;5.90;;;13.60;61.50;;;;;;5040943;28;20037;-62
2021/05/06 08:24:10;;;;;;;45.47;5.57;;;13.60;61.10;;;;;;5024021;28;20124;-62
2021/05/06 08:26:35;;;;;;;71.50;7.32;;;13.60;61.40;;;;;;5037610;28;20176;-61
2021/05/06 08:29:01;;;;;;;59.95;7.38;;;13.60;61.20;;;;;;5022632;28;20029;-61
2021/05/06 08:31:27;;;;;;;61.78;5.68;;;13.70;61.90;;;;;;5034660;28;20025;-62
2021/05/06 08:33:52;;;;;;;43.28;4.80;;;13.70;61.10;;;;;;5038387;28;20033;-63
2021/05/06 08:36:18;;;;;;;51.17;4.63;;;13.70;61.20;;;;;;4998728;28;20021;-63
2021/05/06 08:38:43;;;;;;;35.88;4.35;;;13.70;61.10;;;;;;5022243;28;20049;-60
2021/05/06 08:41:09;;;;;;;39.30;4.65;;;13.70;60.90;;;;;;5006824;28;20076;-62
2021/05/06 08:43:36;;;;;;;28.42;4.03;;;13.70;60.80;;;;;;5039941;28;20164;-60
2021/05/06 08:46:02;;;;;;;19.92;4.32;;;13.80;60.60;;;;;;5023364;28;20075;-60
2021/05/06 08:48:28;;;;;;;25.42;3.80;;;13.80;60.60;;;;;;5040731;28;20039;-61
2021/05/06 08:50:55;;;;;;;21.85;3.97;;;13.80;60.60;;;;;;5026066;28;20025;-62
2021/05/06 08:53:21;;;;;;;21.40;3.22;;;13.80;60.50;;;;;;5013308;28;20059;-62
2021/05/06 08:55:47;;;;;;;41.47;4.82;;;13.80;60.30;;;;;;5006938;28;20087;-62
2021/05/06 08:58:12;;;;;;;56.95;5.95;;;13.80;60.30;;;;;;5014004;28;20124;-62
2021/05/06 09:00:38;;;;;;;182.38;15.27;;;13.90;60.80;;;;;;5016863;28;20013;-61
2021/05/06 09:03:04;;;;;;;79.88;6.60;;;13.80;60.80;;;;;;5035365;28;20515;-63
2021/05/06 09:05:30;;;;;;;35.70;4.80;;;13.90;60.90;;;;;;5021052;28;20048;-61
2021/05/06 09:07:55;;;;;;;60.67;6.13;;;13.90;60.90;;;;;;5040545;28;20035;-62
2021/05/06 09:10:35;;;;;;;43.92;6.22;;;13.90;60.60;;;;;;5040256;28;20643;-61
2021/05/06 09:13:01;;;;;;;42.30;5.82;;;13.90;60.80;;;;;;5039108;28;20028;-60
2021/05/06 09:15:26;;;;;;;137.30;14.13;;;13.90;60.80;;;;;;5022086;28;20033;-62
2021/05/06 09:17:53;;;;;;;93.43;8.38;;;13.90;60.80;;;;;;5035322;28;20383;-62
2021/05/06 09:20:25;;;;;;;73.80;6.70;;;13.90;61.20;;;;;;5021841;28;20029;-61
2021/05/06 09:22:53;;;;;;;50.40;5.32;;;13.90;60.80;;;;;;5022833;28;20036;-61
2021/05/06 09:25:35;;;;;;;46.60;7.28;;;13.90;60.80;;;;;;5023566;28;20024;-62
2021/05/06 09:28:11;;;;;;;89.35;8.40;;;14.00;61.00;;;;;;5038288;28;20388;-62
2021/05/06 09:30:49;;;;;;;205.43;19.60;;;14.00;61.10;;;;;;5039310;28;20047;-61
2021/05/06 09:33:15;;;;;;;90.82;9.95;;;14.00;61.40;;;;;;5021553;28;20029;-61
2021/05/06 09:35:43;;;;;;;48.20;6.60;;;14.00;61.20;;;;;;5022456;28;20488;-61
2021/05/06 09:38:24;;;;;;;68.00;6.63;;;14.00;61.40;;;;;;5040939;28;20061;-60
2021/05/06 09:40:50;;;;;;;88.63;8.55;;;14.00;61.60;;;;;;5036862;28;20075;-62
2021/05/06 09:43:26;;;;;;;43.92;6.18;;;14.00;61.80;;;;;;5036234;28;20408;-62
2021/05/06 09:45:52;;;;;;;77.88;8.23;;;14.10;62.20;;;;;;5026882;28;20045;-61
2021/05/06 09:48:20;;;;;;;150.55;14.95;;;14.10;62.30;;;;;;5040492;28;20027;-61
2021/05/06 09:50:51;;;;;;;83.90;9.48;;;14.10;62.30;;;;;;5025153;28;20025;-61
2021/05/06 09:53:22;;;;;;;79.32;8.75;;;14.10;62.40;;;;;;5039629;28;20021;-61
2021/05/06 09:55:47;;;;;;;90.38;11.00;;;14.40;62.90;;;;;;5037100;28;20137;-62
2021/05/06 09:58:21;;;;;;;81.15;9.57;;;14.20;62.80;;;;;;5038414;28;20096;-63
2021/05/06 10:00:47;;;;;;;94.57;8.77;;;14.20;62.80;;;;;;5024707;28;20028;-62
2021/05/06 10:03:19;;;;;;;68.65;7.40;;;14.20;63.00;;;;;;5038512;28;20649;-63
2021/05/06 10:05:46;;;;;;;99.75;8.60;;;14.20;63.30;;;;;;5037077;28;20056;-62
2021/05/06 10:08:11;;;;;;;70.25;6.60;;;14.20;63.60;;;;;;5006218;28;20060;-60
2021/05/06 10:10:38;;;;;;;140.45;13.32;;;14.20;64.00;;;;;;5019437;28;20812;-63
2021/05/06 10:13:05;;;;;;;100.25;9.63;;;14.20;64.30;;;;;;5020396;28;20013;-62
2021/05/06 10:15:30;;;;;;;78.35;8.27;;;14.20;64.60;;;;;;5040626;28;20021;-63
2021/05/06 10:17:56;;;;;;;78.53;8.98;;;14.20;64.80;;;;;;5004817;28;20052;-62
2021/05/06 10:20:25;;;;;;;63.85;8.15;;;14.20;64.80;;;;;;5038600;28;20112;-61
2021/05/06 10:22:51;;;;;;;69.35;6.22;;;14.20;65.20;;;;;;5019378;28;20041;-63
2021/05/06 10:25:16;;;;;;;64.43;8.10;;;14.20;65.20;;;;;;5022699;28;20063;-62
2021/05/06 10:27:42;;;;;;;86.13;7.80;;;14.20;65.40;;;;;;5019298;28;20083;-62
2021/05/06 10:30:08;;;;;;;60.65;8.18;;;14.20;65.50;;;;;;5038911;28;20045;-63
2021/05/06 10:32:34;;;;;;;60.15;7.80;;;14.20;65.60;;;;;;5016892;28;20037;-62
2021/05/06 10:35:03;;;;;;;44.30;6.63;;;14.20;66.30;;;;;;5035298;28;20082;-63
2021/05/06 10:37:31;;;;;;;75.15;8.43;;;14.20;66.40;;;;;;5019393;28;20028;-63
2021/05/06 10:39:56;;;;;;;73.35;9.15;;;14.00;66.30;;;;;;5016913;28;20032;-61
2021/05/06 10:42:25;;;;;;;53.60;8.20;;;14.20;66.70;;;;;;5020459;28;20029;-62
2021/05/06 10:44:54;;;;;;;61.35;7.03;;;14.20;66.60;;;;;;5037061;28;20033;-61
2021/05/06 10:47:54;;;;;;;51.35;6.50;;;14.20;66.70;;;;;;5021941;28;20325;-64
2021/05/06 10:50:53;;;;;;;55.88;6.78;;;14.20;67.00;;;;;;5017695;28;20024;-62
2021/05/06 10:53:27;;;;;;;48.33;7.15;;;14.20;67.00;;;;;;4983420;28;20045;-61
2021/05/06 10:55:54;;;;;;;65.60;8.37;;;14.10;66.70;;;;;;5040184;28;20017;-61
2021/05/06 10:58:23;;;;;;;40.75;6.32;;;14.10;68.10;;;;;;5033622;28;20259;-60
2021/05/06 11:01:16;;;;;;;44.55;6.15;;;14.10;67.80;;;;;;5037066;28;20086;-60
2021/05/06 11:03:42;;;;;;;52.65;5.80;;;14.10;67.50;;;;;;5029702;28;20061;-60
2021/05/06 11:06:08;;;;;;;39.90;6.18;;;14.10;67.20;;;;;;5004321;28;20508;-60
2021/05/06 11:08:37;;;;;;;56.50;6.35;;;14.10;67.80;;;;;;5021331;28;20514;-60
2021/05/06 11:11:05;;;;;;;39.75;5.47;;;14.10;68.00;;;;;;5024391;28;20039;-60
2021/05/06 11:14:06;;;;;;;54.42;6.18;;;14.10;67.50;;;;;;5037086;28;20859;-60
2021/05/06 11:16:36;;;;;;;50.88;5.50;;;14.10;68.10;;;;;;5037241;28;20033;-60
2021/05/06 11:19:02;;;;;;;54.42;6.97;;;14.10;68.10;;;;;;5038451;28;20021;-60
2021/05/06 11:21:30;;;;;;;55.88;7.32;;;14.10;68.20;;;;;;5039694;28;20036;-64
2021/05/06 11:24:17;;;;;;;40.92;5.72;;;14.20;68.90;;;;;;5037780;28;20559;-60
2021/05/06 11:27:34;;;;;;;41.97;6.50;;;14.10;68.60;;;;;;5006712;28;20132;-60
2021/05/06 11:29:53;;;;;;;47.42;6.80;;;14.20;68.90;;;;;;5031824;28;20107;-61
2021/05/06 11:32:31;;;;;;;39.00;6.00;;;14.10;69.50;;;;;;5021955;28;20028;-60
2021/05/06 11:34:56;;;;;;;51.85;6.68;;;14.10;69.10;;;;;;5031628;28;20030;-60
2021/05/06 11:37:26;;;;;;;47.67;6.45;;;14.20;70.90;;;;;;5033455;28;20039;-61
2021/05/06 11:39:59;;;;;;;38.50;6.03;;;14.10;71.50;;;;;;5036171;28;20045;-60
2021/05/06 11:42:25;;;;;;;52.90;6.78;;;14.10;70.50;;;;;;5018587;28;20064;-61
2021/05/06 11:45:10;;;;;;;52.72;7.65;;;14.10;70.60;;;;;;5019917;28;20037;-61
2021/05/06 11:47:36;;;;;;;46.28;7.03;;;14.10;70.60;;;;;;5018062;28;20048;-61
2021/05/06 11:50:27;;;;;;;42.35;7.88;;;14.10;71.20;;;;;;5034527;28;20035;-61
2021/05/06 11:52:53;;;;;;;53.33;7.78;;;14.20;71.90;;;;;;5032466;28;20140;-61
2021/05/06 11:55:39;;;;;;;59.13;6.80;;;14.10;71.80;;;;;;5001126;28;20021;-60
2021/05/06 11:58:04;;;;;;;54.35;6.50;;;14.10;71.90;;;;;;5040239;28;20068;-61
2021/05/06 12:00:30;;;;;;;60.30;7.18;;;14.10;71.80;;;;;;5019494;28;20060;-61
2021/05/06 12:03:01;;;;;;;51.55;6.55;;;14.10;72.20;;;;;;5021335;28;20025;-60
2021/05/06 12:05:46;;;;;;;40.00;6.47;;;14.10;72.00;;;;;;5020089;28;20033;-60
2021/05/06 12:08:12;;;;;;;66.87;8.20;;;14.10;73.20;;;;;;5016400;28;20044;-60
2021/05/06 12:10:41;;;;;;;68.90;7.72;;;14.10;72.90;;;;;;5039197;28;20384;-61
2021/05/06 12:13:06;;;;;;;76.97;9.15;;;14.10;73.10;;;;;;5036657;28;20472;-60
2021/05/06 12:15:32;;;;;;;56.00;7.57;;;14.10;73.50;;;;;;5028151;28;20037;-60
2021/05/06 12:18:15;;;;;;;45.70;5.88;;;14.10;73.50;;;;;;5033505;28;20522;-61
2021/05/06 12:20:55;;;;;;;69.03;7.75;;;14.10;72.60;;;;;;5020425;28;20048;-60
2021/05/06 12:23:20;;;;;;;51.05;7.13;;;14.10;73.20;;;;;;5021676;28;20032;-61
2021/05/06 12:25:46;;;;;;;73.53;9.68;;;14.10;73.60;;;;;;5035475;28;20099;-61
2021/05/06 12:28:12;;;;;;;59.58;7.32;;;14.10;74.00;;;;;;5017689;28;20025;-60
2021/05/06 12:30:38;;;;;;;106.38;12.30;;;14.10;73.20;;;;;;5018515;28;20036;-61
2021/05/06 12:33:03;;;;;;;84.30;9.95;;;14.10;75.10;;;;;;5019292;28;20064;-60
2021/05/06 12:35:29;;;;;;;91.68;10.25;;;14.10;74.10;;;;;;5035407;28;20049;-60
2021/05/06 12:37:54;;;;;;;64.93;8.68;;;14.10;75.10;;;;;;5021897;28;20037;-60
2021/05/06 12:40:20;;;;;;;76.30;9.88;;;14.10;76.00;;;;;;5019882;28;20037;-60
2021/05/06 12:42:45;;;;;;;84.82;9.27;;;14.10;75.50;;;;;;5020283;28;20040;-61
2021/05/06 12:45:14;;;;;;;73.63;8.30;;;14.10;77.40;;;;;;5036675;28;20047;-62
2021/05/06 12:47:44;;;;;;;115.13;11.75;;;14.20;75.50;;;;;;5039087;28;20063;-60
2021/05/06 12:50:14;;;;;;;129.40;12.05;;;14.10;75.90;;;;;;5021885;28;20677;-61
2021/05/06 12:52:44;;;;;;;106.32;10.85;;;14.20;77.00;;;;;;5041131;28;20029;-61
2021/05/06 12:55:22;;;;;;;131.80;12.98;;;14.20;76.60;;;;;;5040960;28;20040;-60
2021/05/06 12:58:13;;;;;;;108.25;11.20;;;14.20;78.30;;;;;;5036042;28;20507;-60
2021/05/06 13:00:39;;;;;;;81.88;11.10;;;14.20;77.90;;;;;;5039916;28;20143;-61
2021/05/06 13:03:31;;;;;;;209.27;20.00;;;14.30;78.10;;;;;;5036243;28;20033;-60
2021/05/06 13:06:08;;;;;;;222.50;21.73;;;14.20;76.70;;;;;;5017743;28;20571;-61
2021/05/06 13:08:40;;;;;;;409.67;38.15;;;14.20;76.70;;;;;;5024123;28;20484;-60
2021/05/06 13:11:10;;;;;;;208.20;23.45;;;14.20;78.50;;;;;;5037869;28;20053;-60
2021/05/06 13:13:43;;;;;;;136.48;16.10;;;14.20;79.10;;;;;;5009507;28;20032;-61
2021/05/06 13:16:13;;;;;;;135.05;16.25;;;14.30;79.70;;;;;;5039053;28;20024;-62
2021/05/06 13:18:39;;;;;;;113.78;12.93;;;14.20;78.30;;;;;;5023934;28;20076;-61
2021/05/06 13:21:20;;;;;;;141.55;13.25;;;14.00;78.40;;;;;;5040467;28;20056;-62
2021/05/06 13:23:46;;;;;;;136.52;14.38;;;14.20;78.40;;;;;;5023863;28;20100;-61
2021/05/06 13:26:11;;;;;;;121.32;13.32;;;14.20;76.90;;;;;;5020398;28;20081;-61
2021/05/06 13:28:42;;;;;;;84.55;11.32;;;14.20;77.80;;;;;;5017881;28;20037;-61
2021/05/06 13:31:15;;;;;;;78.57;8.70;;;14.20;76.60;;;;;;5034680;28;21127;-61
2021/05/06 13:33:41;;;;;;;129.38;13.55;;;14.20;76.30;;;;;;5023867;28;20029;-61
2021/05/06 13:36:08;;;;;;;119.07;13.10;;;14.20;77.80;;;;;;5015121;28;20105;-61
2021/05/06 13:38:46;;;;;;;87.70;10.38;;;14.20;77.10;;;;;;5040112;28;20056;-61
2021/05/06 13:41:13;;;;;;;75.88;10.07;;;14.20;76.90;;;;;;5040457;28;20025;-62
2021/05/06 13:43:39;;;;;;;98.68;10.10;;;14.30;77.10;;;;;;5041514;28;20496;-61
2021/05/06 13:46:08;;;;;;;75.32;10.70;;;14.30;77.00;;;;;;5018758;28;20073;-61
2021/05/06 13:48:33;;;;;;;137.32;14.35;;;14.20;76.60;;;;;;5036480;28;20048;-61
2021/05/06 13:50:59;;;;;;;99.82;11.98;;;14.20;77.40;;;;;;5038568;28;20136;-61
2021/05/06 13:53:24;;;;;;;124.97;14.40;;;14.20;77.50;;;;;;5038899;28;20056;-61
2021/05/06 13:55:50;;;;;;;454.17;45.40;;;14.20;77.70;;;;;;5035360;28;20044;-61
2021/05/06 13:58:15;;;;;;;121.45;16.15;;;14.20;78.10;;;;;;5022735;28;20690;-61
2021/05/06 14:00:41;;;;;;;73.88;8.70;;;14.30;77.70;;;;;;5036212;28;20042;-61
2021/05/06 14:03:06;;;;;;;149.48;13.20;;;14.20;78.20;;;;;;5036353;28;20113;-61
2021/05/06 14:05:32;;;;;;;85.63;9.15;;;14.20;78.20;;;;;;5017381;28;20069;-61
2021/05/06 14:07:57;;;;;;;52.35;7.82;;;14.20;77.90;;;;;;5005116;28;20033;-62
2021/05/06 14:10:23;;;;;;;60.42;7.35;;;14.20;77.90;;;;;;5038850;28;20037;-61
2021/05/06 14:12:48;;;;;;;76.78;9.18;;;14.20;78.20;;;;;;5040293;28;20024;-61
2021/05/06 14:15:14;;;;;;;61.65;7.53;;;14.20;78.80;;;;;;5037294;28;20029;-61
2021/05/06 14:17:39;;;;;;;57.13;6.38;;;14.20;78.20;;;;;;5034602;28;20065;-61
2021/05/06 14:20:05;;;;;;;44.20;7.47;;;14.20;78.40;;;;;;5032319;28;20148;-61
2021/05/06 14:22:31;;;;;;;83.43;8.00;;;14.20;78.20;;;;;;5034752;28;20530;-61
2021/05/06 14:24:56;;;;;;;76.32;9.57;;;14.20;78.60;;;;;;5031150;28;20033;-61
2021/05/06 14:27:22;;;;;;;68.03;7.63;;;14.20;79.40;;;;;;5031538;28;20040;-61
2021/05/06 14:29:47;;;;;;;130.63;13.02;;;14.20;80.00;;;;;;5038466;28;20053;-60
2021/05/06 14:32:13;;;;;;;116.85;11.65;;;14.20;79.80;;;;;;5037688;28;20044;-61
2021/05/06 14:34:38;;;;;;;128.60;12.07;;;14.20;80.60;;;;;;5039892;28;20569;-62
2021/05/06 14:37:04;;;;;;;100.63;9.60;;;14.20;80.20;;;;;;5037278;28;20043;-61
2021/05/06 14:39:29;;;;;;;92.55;10.05;;;14.10;80.10;;;;;;5037433;28;20135;-61
2021/05/06 14:41:55;;;;;;;115.28;11.30;;;14.20;80.40;;;;;;5034308;28;20025;-61
2021/05/06 14:44:21;;;;;;;158.60;15.52;;;14.20;80.90;;;;;;5022168;28;20199;-61
2021/05/06 14:46:47;;;;;;;169.43;14.80;;;14.20;81.70;;;;;;5006825;28;20533;-61
2021/05/06 14:49:12;;;;;;;158.30;15.48;;;14.20;80.80;;;;;;4992634;28;20044;-61
2021/05/06 14:51:38;;;;;;;107.95;12.98;;;14.10;82.10;;;;;;4995604;28;20045;-61
2021/05/06 14:54:04;;;;;;;114.05;13.52;;;14.20;80.40;;;;;;4991162;28;20036;-61
2021/05/06 14:56:30;;;;;;;141.05;13.32;;;14.20;81.00;;;;;;4979199;28;20425;-61
2021/05/06 14:58:56;;;;;;;188.95;20.75;;;14.20;80.80;;;;;;4998169;28;20037;-61
2021/05/06 15:01:21;;;;;;;196.73;19.98;;;14.20;80.20;;;;;;4977808;28;20026;-61
2021/05/06 15:03:46;;;;;;;139.25;15.93;;;14.20;80.40;;;;;;4994123;28;20080;-61
2021/05/06 15:06:12;;;;;;;121.70;13.40;;;14.20;80.20;;;;;;4994647;28;20375;-61
2021/05/06 15:08:43;;;;;;;122.10;12.63;;;14.20;80.50;;;;;;4994786;28;20050;-61
2021/05/06 15:11:10;;;;;;;121.80;13.00;;;14.20;80.80;;;;;;4995022;28;20042;-61
2021/05/06 15:13:36;;;;;;;105.20;13.95;;;14.20;81.70;;;;;;4992727;28;20034;-61
2021/05/06 15:16:01;;;;;;;108.15;11.95;;;14.20;80.90;;;;;;4994668;28;20033;-61
2021/05/06 15:18:27;;;;;;;85.20;11.13;;;14.20;81.20;;;;;;4997394;28;20524;-61
2021/05/06 15:20:53;;;;;;;97.38;10.52;;;14.20;80.70;;;;;;4992965;28;20604;-61
2021/05/06 15:23:18;;;;;;;170.32;17.52;;;14.20;81.20;;;;;;4994600;28;20236;-61
2021/05/06 15:25:43;;;;;;;203.60;19.63;;;14.20;83.10;;;;;;4995923;28;20113;-61
2021/05/06 15:28:09;;;;;;;402.58;30.95;;;14.20;83.60;;;;;;4991329;28;20042;-61